Time;durP1;ratioP1;P1;durP2;ratioP2;P2;SDS_P1;SDS_P2;PMS_P1;PMS_P2;Temp;Humidity;BMP_temperature;BMP_pressure;BME280_temperature;BME280_humidity;BME280_pressure;Samples;Min_cycle;Max_cycle;Signal;HPM_P1;HPM_P2
2023/04/13 00:00:15;;;;;;;0.20;0.20;;;5.50;99.90;;;;;;5069391;23;20049;-76
2023/04/13 00:02:41;;;;;;;0.20;0.20;;;5.50;99.90;;;;;;5038947;28;20071;-76
2023/04/13 00:05:09;;;;;;;0.10;0.10;;;5.40;99.90;;;;;;5039392;28;20022;-76
2023/04/13 00:07:39;;;;;;;0.10;0.10;;;5.30;99.90;;;;;;5024317;28;20487;-76
2023/04/13 00:10:07;;;;;;;0.20;0.20;;;5.30;99.90;;;;;;5006628;28;20086;-76
2023/04/13 00:12:33;;;;;;;0.13;0.13;;;5.20;99.90;;;;;;5013371;28;20510;-75
2023/04/13 00:15:01;;;;;;;0.10;0.10;;;5.20;99.90;;;;;;5018836;28;20057;-75
2023/04/13 00:17:27;;;;;;;0.10;0.10;;;5.10;99.90;;;;;;5017848;28;20048;-75
2023/04/13 00:19:56;;;;;;;0.10;0.10;;;5.10;99.90;;;;;;5068608;22;20042;-76
2023/04/13 00:22:22;;;;;;;0.10;0.10;;;5.10;99.90;;;;;;5019279;28;20018;-75
2023/04/13 00:24:54;;;;;;;0.20;0.20;;;5.00;99.90;;;;;;5019191;28;20025;-75
2023/04/13 00:27:26;;;;;;;0.10;0.10;;;4.80;99.90;;;;;;5019006;28;20057;-76
2023/04/13 00:29:55;;;;;;;0.20;0.20;;;4.60;99.90;;;;;;4999951;28;20033;-76
2023/04/13 00:32:24;;;;;;;0.10;0.10;;;4.50;99.90;;;;;;5019116;28;20022;-75
2023/04/13 00:34:50;;;;;;;0.25;0.25;;;4.30;99.90;;;;;;5019030;28;20081;-76
2023/04/13 00:37:17;;;;;;;0.10;0.10;;;4.20;99.90;;;;;;5018697;28;20069;-74
2023/04/13 00:39:46;;;;;;;0.20;0.20;;;4.10;99.90;;;;;;5100075;22;20068;-78
2023/04/13 00:42:31;;;;;;;0.10;0.10;;;4.10;99.90;;;;;;5047098;28;20013;-78
2023/04/13 00:45:00;;;;;;;0.10;0.10;;;4.20;99.90;;;;;;5046391;28;20120;-78
2023/04/13 00:47:40;;;;;;;0.15;0.15;;;4.30;99.90;;;;;;5028069;28;20033;-78
2023/04/13 00:50:09;;;;;;;0.10;0.10;;;4.40;99.90;;;;;;5047173;28;20022;-78
2023/04/13 00:52:47;;;;;;;0.20;0.20;;;4.50;99.90;;;;;;5046793;28;20398;-79
2023/04/13 00:55:37;;;;;;;0.20;0.20;;;4.60;99.90;;;;;;5037058;28;20041;-78
2023/04/13 00:58:12;;;;;;;0.13;0.13;;;4.70;99.90;;;;;;5027527;28;20101;-78
2023/04/13 01:00:49;;;;;;;0.20;0.20;;;4.60;99.90;;;;;;5115121;23;20049;-78
2023/04/13 01:03:24;;;;;;;0.20;0.20;;;4.40;99.90;;;;;;5027762;28;20025;-77
2023/04/13 01:06:16;;;;;;;0.10;0.10;;;4.50;99.90;;;;;;5028012;28;20033;-78
2023/04/13 01:08:55;;;;;;;0.20;0.20;;;4.50;99.90;;;;;;5027939;28;20018;-78
2023/04/13 01:11:28;;;;;;;0.20;0.20;;;4.50;99.90;;;;;;5008270;28;20030;-78
2023/04/13 01:14:01;;;;;;;0.10;0.10;;;4.40;99.90;;;;;;5007768;28;20022;-78
2023/04/13 01:16:37;;;;;;;0.10;0.10;;;4.40;99.90;;;;;;5007145;28;20026;-78
2023/04/13 01:19:14;;;;;;;0.20;0.20;;;4.50;99.90;;;;;;5006911;28;20163;-78
2023/04/13 01:21:53;;;;;;;0.20;0.20;;;4.40;99.90;;;;;;5006241;28;20050;-78
2023/04/13 01:24:39;;;;;;;0.20;0.20;;;4.40;99.90;;;;;;5006635;28;20034;-78
2023/04/13 01:27:51;;;;;;;;;;;;;;;;;;;;;
2023/04/13 01:30:27;;;;;;;0.17;0.17;;;4.40;99.90;;;;;;4996409;28;20097;-77
2023/04/13 01:33:15;;;;;;;0.10;0.10;;;4.40;99.90;;;;;;5007635;28;20030;-78
2023/04/13 01:35:45;;;;;;;0.10;0.10;;;4.50;99.90;;;;;;5007772;28;20022;-78
2023/04/13 01:38:31;;;;;;;0.20;0.20;;;4.40;99.90;;;;;;5007106;28;20094;-77
2023/04/13 01:41:06;;;;;;;0.20;0.20;;;4.40;99.90;;;;;;5007535;28;20026;-78
2023/04/13 01:43:44;;;;;;;0.20;0.20;;;4.40;99.90;;;;;;5007410;28;20037;-78
2023/04/13 01:46:22;;;;;;;0.20;0.20;;;4.50;99.90;;;;;;5007281;28;20037;-78
2023/04/13 01:48:53;;;;;;;0.20;0.20;;;4.50;99.90;;;;;;5004966;28;20030;-77
2023/04/13 01:51:44;;;;;;;0.20;0.20;;;4.70;99.90;;;;;;5005638;28;20058;-77
2023/04/13 01:54:15;;;;;;;0.17;0.17;;;4.50;99.90;;;;;;5005857;28;20054;-77
2023/04/13 01:56:51;;;;;;;0.20;0.20;;;4.20;99.90;;;;;;5004311;28;20365;-78
2023/04/13 01:59:26;;;;;;;0.10;0.10;;;4.10;99.90;;;;;;5005754;28;20034;-77
2023/04/13 02:02:01;;;;;;;0.10;0.10;;;4.00;99.90;;;;;;5006065;28;20036;-77
2023/04/13 02:04:47;;;;;;;0.20;0.20;;;3.90;99.90;;;;;;5006290;28;20082;-77
2023/04/13 02:07:22;;;;;;;0.20;0.20;;;3.50;99.90;;;;;;5005941;28;20038;-77
2023/04/13 02:09:54;;;;;;;0.20;0.20;;;3.50;99.90;;;;;;5105492;22;20488;-78
2023/04/13 02:12:19;;;;;;;0.20;0.20;;;3.50;99.90;;;;;;5025931;28;20014;-77
2023/04/13 02:14:45;;;;;;;0.20;0.20;;;3.40;99.90;;;;;;5024119;28;20040;-77
2023/04/13 02:17:11;;;;;;;0.10;0.10;;;3.30;99.90;;;;;;5025788;28;20076;-77
2023/04/13 02:19:36;;;;;;;0.20;0.20;;;3.40;99.90;;;;;;5024299;28;20022;-77
2023/04/13 02:22:07;;;;;;;0.20;0.20;;;3.40;99.90;;;;;;5025915;28;20032;-78
2023/04/13 02:24:54;;;;;;;0.20;0.20;;;3.10;99.90;;;;;;5024236;28;20033;-77
2023/04/13 02:27:29;;;;;;;0.10;0.10;;;3.30;99.90;;;;;;5025722;28;20022;-78
2023/04/13 02:30:01;;;;;;;0.10;0.10;;;3.20;99.90;;;;;;5024857;28;20029;-77
2023/04/13 02:32:39;;;;;;;0.20;0.20;;;3.10;99.90;;;;;;5025971;28;20049;-77
2023/04/13 02:35:16;;;;;;;0.10;0.10;;;2.90;99.90;;;;;;5024686;28;20042;-77
2023/04/13 02:37:54;;;;;;;0.20;0.20;;;3.10;99.90;;;;;;5025999;28;20049;-78
2023/04/13 02:40:41;;;;;;;0.20;0.20;;;3.10;99.90;;;;;;5025271;28;20022;-77
2023/04/13 02:43:11;;;;;;;0.20;0.20;;;2.90;99.90;;;;;;5025202;28;20026;-77
2023/04/13 02:45:48;;;;;;;0.20;0.20;;;3.10;99.90;;;;;;5025294;28;20026;-77
2023/04/13 02:48:25;;;;;;;0.20;0.20;;;2.80;99.90;;;;;;5024991;28;20022;-78
2023/04/13 02:51:03;;;;;;;0.10;0.10;;;2.80;99.90;;;;;;5024712;28;20026;-78
2023/04/13 02:53:48;;;;;;;0.10;0.10;;;2.70;99.90;;;;;;5024987;28;20464;-77
2023/04/13 02:56:17;;;;;;;0.20;0.20;;;2.60;99.90;;;;;;5025300;28;20087;-77
2023/04/13 02:58:45;;;;;;;0.15;0.15;;;2.50;99.90;;;;;;5025221;28;20022;-77
2023/04/13 03:01:13;;;;;;;0.20;0.20;;;2.40;99.90;;;;;;5024163;28;20026;-77
2023/04/13 03:03:40;;;;;;;0.20;0.20;;;2.60;99.90;;;;;;5024484;28;20556;-77
2023/04/13 03:06:06;;;;;;;0.20;0.20;;;2.30;99.90;;;;;;5023612;28;20108;-77
2023/04/13 03:08:32;;;;;;;0.10;0.10;;;2.20;99.90;;;;;;5024773;28;20108;-77
2023/04/13 03:11:05;;;;;;;0.20;0.20;;;2.20;99.90;;;;;;5025552;28;20053;-77
2023/04/13 03:13:53;;;;;;;0.20;0.20;;;2.20;99.90;;;;;;5025977;28;20056;-77
2023/04/13 03:16:27;;;;;;;0.20;0.20;;;2.30;99.90;;;;;;5026095;28;20102;-77
2023/04/13 03:18:55;;;;;;;0.20;0.20;;;2.40;99.90;;;;;;5028015;28;20018;-77
2023/04/13 03:21:21;;;;;;;0.10;0.10;;;2.40;99.90;;;;;;5030352;28;20411;-77
2023/04/13 03:23:47;;;;;;;0.20;0.20;;;2.50;99.90;;;;;;5036645;28;20014;-77
2023/04/13 03:26:12;;;;;;;0.20;0.20;;;2.50;99.90;;;;;;5026133;28;20053;-77
2023/04/13 03:28:40;;;;;;;0.20;0.20;;;2.40;99.90;;;;;;5024844;28;20025;-77
2023/04/13 03:31:26;;;;;;;0.20;0.20;;;2.40;99.90;;;;;;5024092;28;20030;-77
2023/04/13 03:33:56;;;;;;;0.20;0.20;;;2.40;99.90;;;;;;5024690;28;20050;-77
2023/04/13 03:36:31;;;;;;;0.20;0.20;;;2.40;99.90;;;;;;5023383;28;20038;-76
2023/04/13 03:39:08;;;;;;;0.10;0.10;;;2.40;99.90;;;;;;5024310;28;20022;-77
2023/04/13 03:41:48;;;;;;;0.10;0.10;;;2.30;99.90;;;;;;5024151;28;20104;-77
2023/04/13 03:44:25;;;;;;;0.10;0.10;;;2.30;99.90;;;;;;5024118;28;20030;-77
2023/04/13 03:47:11;;;;;;;0.10;0.10;;;2.50;99.90;;;;;;5023557;28;20030;-77
2023/04/13 03:49:38;;;;;;;0.10;0.10;;;2.20;99.90;;;;;;5024537;28;20038;-77
2023/04/13 03:52:04;;;;;;;0.15;0.15;;;2.30;99.90;;;;;;5024897;28;20475;-77
2023/04/13 03:54:30;;;;;;;0.10;0.10;;;2.30;99.90;;;;;;5023590;28;20076;-77
2023/04/13 03:56:57;;;;;;;0.10;0.10;;;2.40;99.90;;;;;;5024301;28;20030;-77
2023/04/13 03:59:23;;;;;;;0.20;0.20;;;2.50;99.90;;;;;;5024964;28;20029;-77
2023/04/13 04:01:49;;;;;;;0.20;0.20;;;2.50;99.90;;;;;;5021937;28;20034;-77
2023/04/13 04:04:33;;;;;;;0.15;0.15;;;2.60;99.90;;;;;;5024130;28;20029;-77
2023/04/13 04:07:22;;;;;;;0.20;0.20;;;2.60;99.90;;;;;;5023336;28;20036;-77
2023/04/13 04:09:47;;;;;;;0.17;0.17;;;2.50;99.90;;;;;;5022992;28;20052;-77
2023/04/13 04:12:16;;;;;;;0.20;0.20;;;2.50;99.90;;;;;;5022879;28;20053;-77
2023/04/13 04:15:02;;;;;;;0.10;0.10;;;2.50;99.90;;;;;;5023185;28;20082;-77
2023/04/13 04:17:48;;;;;;;0.10;0.10;;;2.60;99.90;;;;;;5023028;28;20488;-77
2023/04/13 04:20:16;;;;;;;0.10;0.10;;;2.50;99.90;;;;;;5023448;28;20034;-77
2023/04/13 04:22:55;;;;;;;0.15;0.15;;;2.50;99.90;;;;;;5026590;28;20122;-77
2023/04/13 04:25:33;;;;;;;0.20;0.20;;;2.70;99.90;;;;;;5026011;28;20029;-77
2023/04/13 04:28:19;;;;;;;0.20;0.20;;;2.50;99.90;;;;;;5025105;28;20025;-77
2023/04/13 04:30:53;;;;;;;0.13;0.13;;;2.40;99.90;;;;;;5118664;23;20053;-77
2023/04/13 04:33:23;;;;;;;0.10;0.10;;;2.70;99.90;;;;;;5049101;28;20109;-77
2023/04/13 04:36:13;;;;;;;0.20;0.20;;;2.30;99.90;;;;;;5048624;28;20032;-76
2023/04/13 04:38:41;;;;;;;0.13;0.13;;;2.20;99.90;;;;;;5066292;28;20100;-77
2023/04/13 04:41:19;;;;;;;0.20;0.20;;;2.10;99.90;;;;;;5047020;28;20047;-77
2023/04/13 04:43:55;;;;;;;0.10;0.10;;;2.00;99.90;;;;;;5029046;28;20120;-77
2023/04/13 04:46:32;;;;;;;0.13;0.13;;;2.30;99.90;;;;;;5046959;28;20089;-77
2023/04/13 04:49:10;;;;;;;0.20;0.20;;;2.20;99.90;;;;;;5035256;23;20025;-78
2023/04/13 04:51:48;;;;;;;0.20;0.20;;;2.20;99.90;;;;;;5004489;28;20031;-77
2023/04/13 04:54:25;;;;;;;0.20;0.20;;;2.40;99.90;;;;;;5003723;28;20045;-77
2023/04/13 04:57:09;;;;;;;0.10;0.10;;;2.50;99.90;;;;;;5005398;28;20030;-77
2023/04/13 04:59:43;;;;;;;0.20;0.20;;;2.70;99.90;;;;;;5005953;28;20015;-77
2023/04/13 05:02:09;;;;;;;0.20;0.20;;;2.90;99.90;;;;;;5004581;28;20030;-78
2023/04/13 05:04:43;;;;;;;0.10;0.10;;;3.10;99.90;;;;;;5004626;28;20037;-77
2023/04/13 05:07:32;;;;;;;0.20;0.20;;;3.10;99.90;;;;;;5004431;28;20034;-77
2023/04/13 05:10:18;;;;;;;0.10;0.10;;;3.10;99.90;;;;;;5003862;28;20041;-77
2023/04/13 05:12:46;;;;;;;0.20;0.20;;;3.10;99.90;;;;;;5004606;28;20046;-77
2023/04/13 05:15:12;;;;;;;0.10;0.10;;;3.20;99.90;;;;;;5005797;28;20031;-77
2023/04/13 05:17:38;;;;;;;0.20;0.20;;;3.20;99.90;;;;;;5002267;28;20500;-77
2023/04/13 05:20:05;;;;;;;0.10;0.10;;;3.30;99.90;;;;;;5037068;23;20046;-77
2023/04/13 05:22:31;;;;;;;0.10;0.10;;;3.30;99.90;;;;;;5021633;28;20463;-77
2023/04/13 05:25:00;;;;;;;0.10;0.10;;;3.40;99.90;;;;;;5005017;28;20022;-77
2023/04/13 05:27:52;;;;;;;0.20;0.20;;;3.40;99.90;;;;;;5022894;28;20033;-77
2023/04/13 05:30:18;;;;;;;0.20;0.20;;;3.50;99.90;;;;;;5020810;28;20037;-77
2023/04/13 05:32:54;;;;;;;0.10;0.10;;;3.60;99.90;;;;;;5022400;28;20080;-77
2023/04/13 05:35:30;;;;;;;;;;;;;;;;;;;;;
2023/04/13 05:38:19;;;;;;;0.10;0.10;;;3.60;99.90;;;;;;5022117;28;20073;-77
2023/04/13 05:40:47;;;;;;;0.10;0.10;;;3.70;99.90;;;;;;5004214;28;20033;-77
2023/04/13 05:43:24;;;;;;;0.10;0.10;;;3.80;99.90;;;;;;5004849;28;20080;-77
2023/04/13 05:46:10;;;;;;;0.20;0.20;;;3.90;99.90;;;;;;5021319;28;20026;-77
2023/04/13 05:48:38;;;;;;;0.10;0.10;;;4.10;99.90;;;;;;5004832;28;20562;-77
2023/04/13 05:51:04;;;;;;;0.10;0.10;;;4.00;99.90;;;;;;5021523;28;20033;-77
2023/04/13 05:53:30;;;;;;;0.10;0.10;;;4.20;99.90;;;;;;5003697;28;20492;-77
2023/04/13 05:55:56;;;;;;;0.10;0.10;;;4.30;99.90;;;;;;5003853;28;20018;-77
2023/04/13 05:58:25;;;;;;;0.10;0.10;;;4.30;99.90;;;;;;5021423;28;20026;-77
2023/04/13 06:00:51;;;;;;;0.10;0.10;;;4.40;99.90;;;;;;5021750;28;20021;-77
2023/04/13 06:03:39;;;;;;;0.10;0.10;;;4.50;99.90;;;;;;5021295;28;20077;-76
2023/04/13 06:06:09;;;;;;;0.10;0.10;;;4.70;99.90;;;;;;5021399;28;20042;-77
2023/04/13 06:08:41;;;;;;;0.10;0.10;;;4.70;99.90;;;;;;5004087;28;20053;-77
2023/04/13 06:11:32;;;;;;;0.10;0.10;;;4.70;99.90;;;;;;5019690;28;20037;-77
2023/04/13 06:14:02;;;;;;;0.10;0.10;;;4.80;99.90;;;;;;5019436;28;20033;-76
2023/04/13 06:16:37;;;;;;;0.10;0.10;;;4.90;99.90;;;;;;5020424;28;20037;-76
2023/04/13 06:19:02;;;;;;;0.10;0.10;;;4.80;99.90;;;;;;5002085;28;20044;-77
2023/04/13 06:21:29;;;;;;;0.15;0.15;;;4.80;99.90;;;;;;5002939;28;20030;-77
2023/04/13 06:23:54;;;;;;;0.10;0.10;;;4.90;99.90;;;;;;5004196;28;20503;-77
2023/04/13 06:26:20;;;;;;;0.10;0.10;;;5.10;99.90;;;;;;5021107;28;20085;-77
2023/04/13 06:28:48;;;;;;;0.10;0.10;;;5.10;99.90;;;;;;5022385;28;20026;-78
2023/04/13 06:31:14;;;;;;;0.10;0.10;;;5.30;99.90;;;;;;5020851;28;20033;-77
2023/04/13 06:33:40;;;;;;;0.20;0.20;;;5.40;99.90;;;;;;5006293;28;20097;-78
2023/04/13 06:36:06;;;;;;;0.10;0.10;;;5.60;99.90;;;;;;5022095;28;20053;-78
2023/04/13 06:38:33;;;;;;;0.10;0.10;;;5.70;99.90;;;;;;5005688;28;20030;-78
2023/04/13 06:41:02;;;;;;;0.10;0.10;;;5.90;99.90;;;;;;5004715;28;20026;-78
2023/04/13 06:43:30;;;;;;;0.15;0.15;;;6.10;99.90;;;;;;5004637;28;20036;-78
2023/04/13 06:46:00;;;;;;;0.10;0.10;;;6.10;99.90;;;;;;5021215;28;20487;-78
2023/04/13 06:48:26;;;;;;;0.10;0.10;;;6.20;99.90;;;;;;5000661;28;20030;-78
2023/04/13 06:50:55;;;;;;;0.10;0.10;;;6.30;99.90;;;;;;5020233;28;20109;-77
2023/04/13 06:53:23;;;;;;;0.17;0.17;;;6.20;99.90;;;;;;5002446;28;20064;-78
2023/04/13 06:55:57;;;;;;;0.10;0.10;;;6.20;99.90;;;;;;5002398;28;20018;-78
2023/04/13 06:58:32;;;;;;;0.20;0.20;;;6.20;99.90;;;;;;5019679;28;20022;-77
2023/04/13 07:01:09;;;;;;;;;;;;;;;;;;;;;
2023/04/13 07:03:59;;;;;;;0.20;0.20;;;6.70;99.90;;;;;;5018819;28;20101;-77
2023/04/13 07:06:42;;;;;;;0.20;0.20;;;6.70;99.90;;;;;;5021672;28;20042;-79
2023/04/13 07:11:47;;;;;;;0.10;0.10;;;6.80;99.90;;;;;;5023607;28;20045;-79
2023/04/13 07:14:17;;;;;;;0.10;0.10;;;7.00;99.90;;;;;;5021571;28;20046;-78
2023/04/13 07:17:03;;;;;;;0.10;0.10;;;7.10;99.90;;;;;;5006065;28;20068;-78
2023/04/13 07:19:37;;;;;;;0.20;0.20;;;7.10;99.90;;;;;;5025931;28;20045;-78
2023/04/13 07:22:23;;;;;;;0.10;0.10;;;7.30;99.90;;;;;;5023445;28;20101;-78
2023/04/13 07:24:57;;;;;;;0.20;0.20;;;6.90;99.90;;;;;;5007514;28;20045;-78
2023/04/13 07:27:32;;;;;;;0.10;0.10;;;6.90;99.90;;;;;;5005108;28;20033;-78
2023/04/13 07:30:18;;;;;;;0.20;0.20;;;6.80;99.90;;;;;;5005702;28;20021;-78
2023/04/13 07:32:46;;;;;;;0.10;0.10;;;6.70;99.90;;;;;;5006552;28;20034;-79
2023/04/13 07:35:12;;;;;;;0.20;0.20;;;6.70;99.90;;;;;;5023123;28;20491;-78
2023/04/13 07:37:37;;;;;;;0.20;0.20;;;6.70;99.90;;;;;;5026928;28;20033;-79
2023/04/13 07:40:04;;;;;;;0.20;0.20;;;6.70;99.90;;;;;;5039406;23;20050;-79
2023/04/13 07:42:29;;;;;;;0.30;0.30;;;6.80;99.90;;;;;;5024924;28;20072;-79
2023/04/13 07:44:58;;;;;;;0.20;0.20;;;6.80;99.90;;;;;;5022302;28;20034;-78
2023/04/13 07:47:27;;;;;;;0.20;0.20;;;6.80;99.90;;;;;;5022257;28;20101;-79
2023/04/13 07:49:53;;;;;;;0.20;0.20;;;6.80;99.90;;;;;;5003113;28;20095;-79
2023/04/13 07:52:21;;;;;;;0.20;0.20;;;6.80;99.90;;;;;;5021455;28;20030;-78
2023/04/13 07:54:47;;;;;;;0.10;0.10;;;6.80;99.90;;;;;;5024261;28;20038;-78
2023/04/13 07:57:20;;;;;;;0.20;0.20;;;6.80;99.90;;;;;;5027476;28;20036;-77
2023/04/13 07:59:46;;;;;;;0.10;0.10;;;6.80;99.90;;;;;;5114931;22;20048;-78
2023/04/13 08:02:16;;;;;;;0.20;0.20;;;6.80;99.90;;;;;;5026711;28;20061;-78
2023/04/13 08:04:43;;;;;;;0.20;0.20;;;6.80;99.90;;;;;;5009797;28;20026;-77
2023/04/13 08:07:09;;;;;;;0.20;0.20;;;7.00;99.90;;;;;;5007242;28;20079;-77
2023/04/13 08:09:35;;;;;;;0.10;0.10;;;7.10;99.90;;;;;;5008174;28;20039;-78
2023/04/13 08:12:12;;;;;;;0.15;0.15;;;6.90;99.90;;;;;;5006715;28;20492;-78
2023/04/13 08:14:46;;;;;;;0.20;0.20;;;6.90;99.90;;;;;;5007235;28;20038;-78
2023/04/13 08:17:28;;;;;;;0.20;0.20;;;6.90;99.90;;;;;;5007474;28;20045;-78
2023/04/13 08:20:07;;;;;;;0.20;0.20;;;6.90;99.90;;;;;;5110913;23;20053;-77
2023/04/13 08:22:44;;;;;;;0.20;0.20;;;6.90;99.90;;;;;;5027539;28;20033;-77
2023/04/13 08:25:21;;;;;;;0.20;0.20;;;6.90;99.90;;;;;;5044809;28;20104;-79
2023/04/13 08:27:57;;;;;;;0.20;0.20;;;6.90;99.90;;;;;;5038092;28;20505;-78
2023/04/13 08:30:23;;;;;;;0.13;0.13;;;6.90;99.90;;;;;;5025900;28;20425;-77
2023/04/13 08:32:49;;;;;;;0.10;0.10;;;6.90;99.90;;;;;;5016657;28;20104;-77
2023/04/13 08:35:14;;;;;;;0.20;0.20;;;6.90;99.90;;;;;;5015864;28;20026;-77
2023/04/13 08:37:41;;;;;;;0.20;0.20;;;6.90;99.90;;;;;;5016103;28;20030;-76
2023/04/13 08:40:10;;;;;;;0.10;0.10;;;6.90;99.90;;;;;;5016612;28;20021;-77
2023/04/13 08:42:41;;;;;;;0.10;0.10;;;6.90;99.90;;;;;;4998782;28;20026;-77
2023/04/13 08:45:08;;;;;;;0.20;0.20;;;6.90;99.90;;;;;;5016598;28;20036;-77
2023/04/13 08:47:33;;;;;;;0.15;0.15;;;6.90;99.90;;;;;;5016600;28;20525;-77
2023/04/13 08:50:00;;;;;;;0.10;0.10;;;6.90;99.90;;;;;;5033870;23;20128;-78
2023/04/13 08:52:27;;;;;;;0.20;0.20;;;7.00;99.90;;;;;;5018313;28;20026;-77
2023/04/13 08:54:57;;;;;;;0.10;0.10;;;7.00;99.90;;;;;;5016366;28;20049;-77
2023/04/13 08:57:23;;;;;;;0.10;0.10;;;7.00;99.90;;;;;;4981388;28;20110;-77
2023/04/13 08:59:51;;;;;;;0.20;0.20;;;6.90;99.90;;;;;;5004289;28;20430;-77
2023/04/13 09:02:23;;;;;;;0.15;0.15;;;6.90;99.90;;;;;;5017421;28;20072;-76
2023/04/13 09:04:50;;;;;;;0.10;0.10;;;6.90;99.90;;;;;;5016491;28;20014;-77
2023/04/13 09:07:25;;;;;;;0.10;0.10;;;6.90;99.90;;;;;;5015604;28;20022;-77
2023/04/13 09:09:58;;;;;;;0.20;0.20;;;7.00;99.90;;;;;;5015914;28;20017;-77
2023/04/13 09:12:29;;;;;;;0.10;0.10;;;7.00;99.90;;;;;;5016406;28;20064;-77
2023/04/13 09:14:55;;;;;;;0.10;0.10;;;7.00;99.90;;;;;;5015624;28;20065;-77
2023/04/13 09:17:31;;;;;;;0.20;0.20;;;7.00;99.90;;;;;;5015748;28;20037;-77
2023/04/13 09:20:10;;;;;;;0.10;0.10;;;7.10;99.90;;;;;;5016292;28;20021;-77
2023/04/13 09:22:36;;;;;;;0.20;0.20;;;7.20;99.90;;;;;;5013764;28;20088;-78
2023/04/13 09:25:04;;;;;;;0.20;0.20;;;7.30;99.90;;;;;;5015479;28;20089;-77
2023/04/13 09:27:30;;;;;;;0.20;0.20;;;7.20;99.90;;;;;;5015590;28;20028;-77
2023/04/13 09:29:55;;;;;;;0.10;0.10;;;7.30;99.90;;;;;;5146365;23;20121;-77
2023/04/13 09:32:23;;;;;;;0.20;0.20;;;7.20;99.90;;;;;;4998203;28;20097;-77
2023/04/13 09:35:07;;;;;;;0.10;0.10;;;7.10;99.90;;;;;;4997566;28;20096;-78
2023/04/13 09:37:36;;;;;;;;;;;7.20;99.90;;;;;;5017489;28;20022;-78
2023/04/13 09:40:19;;;;;;;0.10;0.10;;;7.30;99.90;;;;;;5009144;28;19960;-77
2023/04/13 09:42:56;;;;;;;0.10;0.10;;;7.20;99.90;;;;;;5000044;28;20030;-77
2023/04/13 09:45:22;;;;;;;0.10;0.10;;;7.30;99.90;;;;;;5014946;28;20057;-78
2023/04/13 09:47:48;;;;;;;0.20;0.20;;;7.60;99.90;;;;;;4997113;28;20029;-77
2023/04/13 09:50:22;;;;;;;0.13;0.13;;;8.00;99.90;;;;;;5014588;28;20402;-77
2023/04/13 09:53:01;;;;;;;0.10;0.10;;;8.30;99.90;;;;;;5000514;28;20037;-78
2023/04/13 09:55:30;;;;;;;0.20;0.20;;;8.80;99.90;;;;;;5017604;28;20488;-78
2023/04/13 09:57:55;;;;;;;0.20;0.20;;;8.60;99.90;;;;;;5017341;28;20060;-78
2023/04/13 10:00:23;;;;;;;0.20;0.20;;;8.60;99.90;;;;;;5016489;28;20025;-78
2023/04/13 10:02:50;;;;;;;0.20;0.20;;;8.80;99.90;;;;;;5016095;28;20026;-78
2023/04/13 10:05:19;;;;;;;0.20;0.20;;;9.10;99.90;;;;;;5017780;28;20480;-78
2023/04/13 10:07:46;;;;;;;0.20;0.20;;;9.50;99.90;;;;;;4999466;28;20037;-78
2023/04/13 10:10:12;;;;;;;0.10;0.10;;;9.40;99.90;;;;;;5016990;28;20037;-78
2023/04/13 10:12:42;;;;;;;0.20;0.20;;;9.30;99.90;;;;;;4999296;28;20385;-78
2023/04/13 10:15:17;;;;;;;0.20;0.20;;;9.40;99.90;;;;;;5016408;28;20056;-77
2023/04/13 10:18:04;;;;;;;0.20;0.20;;;9.40;99.90;;;;;;4985646;28;20555;-77
2023/04/13 10:20:34;;;;;;;0.20;0.20;;;9.80;99.90;;;;;;4992774;28;20026;-79
2023/04/13 10:23:01;;;;;;;0.10;0.10;;;9.80;99.90;;;;;;4995391;28;20026;-78
2023/04/13 10:25:27;;;;;;;0.20;0.20;;;9.50;99.90;;;;;;5012526;28;20049;-78
2023/04/13 10:27:59;;;;;;;0.10;0.10;;;9.40;99.90;;;;;;4997278;28;20029;-78
2023/04/13 10:30:25;;;;;;;0.20;0.20;;;9.30;99.90;;;;;;4987496;28;20040;-79
2023/04/13 10:33:08;;;;;;;0.20;0.20;;;9.40;99.90;;;;;;5031638;28;20033;-78
2023/04/13 10:35:35;;;;;;;0.20;0.20;;;9.90;99.90;;;;;;5015336;28;20026;-77
2023/04/13 10:38:02;;;;;;;0.20;0.20;;;10.00;99.90;;;;;;5015380;28;20076;-76
2023/04/13 10:40:27;;;;;;;0.15;0.15;;;10.30;99.90;;;;;;5150009;23;20121;-77
2023/04/13 10:42:53;;;;;;;0.20;0.20;;;10.40;99.90;;;;;;5015999;28;20049;-78
2023/04/13 10:45:29;;;;;;;0.20;0.20;;;10.70;99.90;;;;;;5016237;28;20033;-78
2023/04/13 10:47:57;;;;;;;0.20;0.20;;;10.50;99.90;;;;;;5012245;28;20075;-78
2023/04/13 10:50:23;;;;;;;0.20;0.20;;;10.50;99.90;;;;;;5028307;28;20111;-78
2023/04/13 10:53:04;;;;;;;0.20;0.20;;;11.00;99.90;;;;;;5011125;28;20041;-77
2023/04/13 10:55:36;;;;;;;0.15;0.15;;;11.40;99.90;;;;;;4994924;28;20049;-78
2023/04/13 10:58:12;;;;;;;0.17;0.17;;;11.60;99.90;;;;;;5001536;28;20579;-78
2023/04/13 11:00:38;;;;;;;0.20;0.20;;;11.50;99.90;;;;;;5018681;28;20033;-79
2023/04/13 11:03:05;;;;;;;0.20;0.20;;;11.20;99.90;;;;;;5014564;28;20100;-79
2023/04/13 11:05:30;;;;;;;0.20;0.20;;;10.70;99.90;;;;;;5019615;28;20065;-79
2023/04/13 11:07:56;;;;;;;0.22;0.22;;;10.40;99.90;;;;;;4999019;28;20026;-79
2023/04/13 11:10:31;;;;;;;0.20;0.20;;;10.30;99.90;;;;;;5015893;28;20029;-79
2023/04/13 11:12:57;;;;;;;0.20;0.20;;;10.70;99.90;;;;;;5021026;28;20101;-78
2023/04/13 11:15:25;;;;;;;0.20;0.20;;;10.90;99.90;;;;;;5020950;28;20030;-78
2023/04/13 11:17:59;;;;;;;0.20;0.20;;;10.90;99.90;;;;;;5020947;28;20045;-78
2023/04/13 11:20:32;;;;;;;0.20;0.20;;;11.00;99.90;;;;;;5004470;28;20018;-78
2023/04/13 11:23:01;;;;;;;0.20;0.20;;;11.00;99.90;;;;;;5019190;28;20104;-78
2023/04/13 11:25:33;;;;;;;0.20;0.20;;;11.10;99.90;;;;;;5001202;28;20510;-77
2023/04/13 11:28:09;;;;;;;0.20;0.20;;;10.80;99.90;;;;;;5002582;28;20116;-79
2023/04/13 11:30:35;;;;;;;0.20;0.20;;;10.70;99.90;;;;;;5024958;23;20049;-78
2023/04/13 11:33:00;;;;;;;0.10;0.10;;;10.60;99.90;;;;;;5020152;28;20018;-78
2023/04/13 11:35:26;;;;;;;0.10;0.10;;;10.50;99.90;;;;;;5014075;28;20030;-76
2023/04/13 11:37:54;;;;;;;0.20;0.20;;;10.30;99.90;;;;;;5013801;28;20053;-77
2023/04/13 11:40:26;;;;;;;0.20;0.20;;;10.20;99.90;;;;;;5012173;28;20073;-77
2023/04/13 11:42:58;;;;;;;0.20;0.20;;;9.90;99.90;;;;;;5015750;28;20037;-76
2023/04/13 11:45:25;;;;;;;0.10;0.10;;;9.80;99.90;;;;;;5013724;28;20033;-76
2023/04/13 11:47:52;;;;;;;0.20;0.20;;;9.50;99.90;;;;;;5013542;28;20026;-77
2023/04/13 11:50:19;;;;;;;0.20;0.20;;;9.40;99.90;;;;;;5013764;28;20032;-77
2023/04/13 11:52:46;;;;;;;0.20;0.20;;;9.70;99.90;;;;;;5012933;28;20494;-77
2023/04/13 11:55:12;;;;;;;0.10;0.10;;;10.40;99.90;;;;;;5013274;28;20040;-77
2023/04/13 11:57:40;;;;;;;0.20;0.20;;;10.40;99.90;;;;;;5012716;28;20029;-76
2023/04/13 12:00:16;;;;;;;0.20;0.20;;;10.10;99.90;;;;;;5011694;28;20029;-77
2023/04/13 12:02:42;;;;;;;0.20;0.20;;;10.10;99.90;;;;;;5014082;28;20080;-77
2023/04/13 12:05:18;;;;;;;0.10;0.10;;;10.30;99.90;;;;;;5012926;28;20022;-77
2023/04/13 12:07:44;;;;;;;0.20;0.20;;;11.30;99.90;;;;;;5014772;28;20037;-77
2023/04/13 12:10:09;;;;;;;0.10;0.10;;;12.10;99.90;;;;;;5015183;28;20018;-77
2023/04/13 12:12:36;;;;;;;0.10;0.10;;;12.30;99.90;;;;;;5014931;28;20026;-77
2023/04/13 12:15:06;;;;;;;0.20;0.20;;;12.90;99.90;;;;;;5015860;28;20022;-78
2023/04/13 12:17:33;;;;;;;0.10;0.10;;;12.50;99.90;;;;;;5016078;28;20028;-78
2023/04/13 12:20:00;;;;;;;0.20;0.20;;;12.10;99.90;;;;;;5015866;23;20045;-77
2023/04/13 12:22:36;;;;;;;0.13;0.13;;;11.70;99.90;;;;;;5014104;28;20372;-77
2023/04/13 12:25:19;;;;;;;0.20;0.20;;;11.70;99.90;;;;;;5014547;28;20037;-77
2023/04/13 12:27:47;;;;;;;0.20;0.20;;;12.20;99.90;;;;;;5014018;28;20117;-75
2023/04/13 12:30:14;;;;;;;0.15;0.15;;;12.70;99.90;;;;;;5014357;28;20481;-77
2023/04/13 12:32:42;;;;;;;0.10;0.10;;;13.90;99.90;;;;;;5013341;28;20022;-77
2023/04/13 12:35:08;;;;;;;0.13;0.13;;;13.90;99.90;;;;;;5014030;28;20546;-78
2023/04/13 12:37:43;;;;;;;0.20;0.20;;;13.10;99.90;;;;;;5013263;28;20025;-77
2023/04/13 12:40:11;;;;;;;0.20;0.20;;;12.60;99.90;;;;;;5046520;23;20057;-77
2023/04/13 12:42:42;;;;;;;0.20;0.20;;;12.30;99.90;;;;;;4998990;28;20028;-77
2023/04/13 12:45:08;;;;;;;0.20;0.20;;;12.00;99.90;;;;;;5017251;28;20026;-77
2023/04/13 12:47:37;;;;;;;0.20;0.20;;;12.00;99.90;;;;;;5017883;28;20045;-77
2023/04/13 12:50:14;;;;;;;0.20;0.20;;;12.00;99.90;;;;;;5019125;28;20419;-78
2023/04/13 12:52:44;;;;;;;0.10;0.10;;;11.70;99.90;;;;;;4999941;28;20065;-78
2023/04/13 12:55:10;;;;;;;0.20;0.20;;;11.40;99.90;;;;;;5000485;28;20080;-77
2023/04/13 12:57:35;;;;;;;0.20;0.20;;;11.10;99.90;;;;;;5000501;28;20407;-77
2023/04/13 13:00:01;;;;;;;0.20;0.20;;;11.50;99.90;;;;;;5002908;28;20022;-78
2023/04/13 13:02:31;;;;;;;0.20;0.20;;;13.00;99.90;;;;;;5017874;28;20022;-77
2023/04/13 13:04:57;;;;;;;0.15;0.15;;;13.30;99.90;;;;;;5019060;28;20105;-78
2023/04/13 13:07:23;;;;;;;0.20;0.20;;;13.30;99.90;;;;;;5019055;28;20026;-78
2023/04/13 13:09:49;;;;;;;0.20;0.20;;;13.30;99.90;;;;;;5016591;28;20037;-78
2023/04/13 13:12:15;;;;;;;0.15;0.15;;;13.20;99.90;;;;;;5016063;28;20041;-77
2023/04/13 13:14:41;;;;;;;0.10;0.10;;;13.20;99.90;;;;;;5020897;28;20071;-77
2023/04/13 13:17:07;;;;;;;0.20;0.20;;;13.40;99.90;;;;;;5015376;28;20022;-77
2023/04/13 13:19:32;;;;;;;0.20;0.20;;;14.30;99.90;;;;;;5021919;28;20021;-78
2023/04/13 13:22:00;;;;;;;0.10;0.10;;;14.40;99.90;;;;;;5019791;28;20033;-78
2023/04/13 13:24:28;;;;;;;0.20;0.20;;;13.90;99.90;;;;;;5040607;28;20022;-77